Time;durP1;ratioP1;P1;durP2;ratioP2;P2;SDS_P1;SDS_P2;PMS_P1;PMS_P2;Temp;Humidity;BMP_temperature;BMP_pressure;BME280_temperature;BME280_humidity;BME280_pressure;Samples;Min_cycle;Max_cycle;Signal;HPM_P1;HPM_P2
2021/08/04 00:00:44;;;;;;;1.90;1.10;;;;;;;16.13;72.90;99692.14;1692880;83;21134;-52
2021/08/04 00:03:11;;;;;;;3.83;1.30;;;;;;;16.11;72.91;99691.87;1688954;83;21681;-54
2021/08/04 00:05:39;;;;;;;3.30;1.40;;;;;;;16.08;72.95;99691.59;1692723;82;21379;-52
2021/08/04 00:08:07;;;;;;;3.05;1.12;;;;;;;16.05;72.96;99693.67;1691761;83;21029;-54
2021/08/04 00:10:35;;;;;;;4.50;1.32;;;;;;;16.02;72.91;99703.38;1689203;83;21061;-53
2021/08/04 00:13:03;;;;;;;2.00;0.90;;;;;;;15.98;72.87;99700.04;1674662;83;21082;-54
2021/08/04 00:15:31;;;;;;;1.60;1.10;;;;;;;15.98;72.88;99703.23;1648535;85;21094;-53
2021/08/04 00:17:58;;;;;;;3.67;0.85;;;;;;;15.95;72.87;99700.73;1647370;85;21105;-54
2021/08/04 00:20:25;;;;;;;4.37;1.05;;;;;;;15.93;72.94;99706.27;1646471;85;21138;-54
2021/08/04 00:22:51;;;;;;;2.20;1.00;;;;;;;15.91;73.04;99702.78;1643743;85;21553;-54
2021/08/04 00:25:17;;;;;;;1.55;0.90;;;;;;;15.92;73.13;99707.72;1708437;81;21083;-54
2021/08/04 00:27:43;;;;;;;3.67;1.42;;;;;;;15.90;73.18;99705.14;1709677;82;21117;-54
2021/08/04 00:30:11;;;;;;;2.30;1.10;;;;;;;15.90;73.21;99703.78;1708015;81;21533;-52
2021/08/04 00:32:37;;;;;;;4.40;0.88;;;;;;;15.89;73.13;99710.19;1709270;81;21096;-55
2021/08/04 00:35:05;;;;;;;2.47;1.32;;;;;;;15.85;72.93;99709.52;1708530;81;20946;-53
2021/08/04 00:37:32;;;;;;;5.80;0.85;;;;;;;15.82;72.86;99715.16;1682084;82;21497;-53
2021/08/04 00:40:00;;;;;;;3.72;1.50;;;;;;;15.80;72.88;99713.55;1708886;81;21478;-54
2021/08/04 00:42:26;;;;;;;5.25;0.82;;;;;;;15.77;72.95;99711.91;1709170;82;20980;-53
2021/08/04 00:44:54;;;;;;;4.47;0.90;;;;;;;15.74;72.94;99713.47;1711218;81;21320;-53
2021/08/04 00:47:21;;;;;;;3.80;1.00;;;;;;;15.72;72.90;99720.88;1682110;82;21410;-52
2021/08/04 00:49:47;;;;;;;5.15;1.10;;;;;;;15.68;73.08;99716.63;1709591;82;21829;-53
2021/08/04 00:52:14;;;;;;;5.95;1.00;;;;;;;15.68;73.21;99723.89;1713314;82;21466;-53
2021/08/04 00:54:40;;;;;;;1.67;0.90;;;;;;;15.65;73.12;99722.25;1712762;82;20948;-52
2021/08/04 00:57:07;;;;;;;4.78;1.10;;;;;;;15.61;72.94;99718.03;1708917;82;21605;-55
2021/08/04 00:59:35;;;;;;;3.75;0.98;;;;;;;15.59;72.90;99718.61;1674337;83;20934;-54
2021/08/04 01:02:24;;;;;;;1.95;0.80;;;;;;;15.57;72.99;99712.42;1711073;82;20995;-53
2021/08/04 01:04:56;;;;;;;1.02;0.80;;;;;;;15.55;73.13;99709.45;1708294;82;20943;-53
2021/08/04 01:07:29;;;;;;;3.95;0.90;;;;;;;15.55;73.20;99721.17;1708905;82;20948;-53
2021/08/04 01:10:27;;;;;;;4.37;0.90;;;;;;;15.56;73.05;99713.91;1705669;82;21755;-55
2021/08/04 01:13:07;;;;;;;1.20;0.80;;;;;;;15.55;72.98;99725.25;1710079;81;21130;-55
2021/08/04 01:15:41;;;;;;;2.67;0.90;;;;;;;15.54;72.84;99722.14;1713297;81;21530;-53
2021/08/04 01:18:08;;;;;;;1.40;1.15;;;;;;;15.50;72.82;99715.14;1714333;81;20989;-55
2021/08/04 01:20:35;;;;;;;1.72;1.20;;;;;;;15.46;72.80;99712.28;1715410;81;21086;-53
2021/08/04 01:23:28;;;;;;;2.95;0.88;;;;;;;15.41;72.80;99721.20;1692710;82;21229;-52
2021/08/04 01:26:31;;;;;;;4.55;1.00;;;;;;;15.38;72.76;99725.02;1714311;81;21684;-53
2021/08/04 01:28:59;;;;;;;4.12;0.80;;;;;;;15.36;72.81;99717.95;1699114;82;21074;-52
2021/08/04 01:31:28;;;;;;;0.80;0.65;;;;;;;15.33;73.09;99719.02;1710337;81;21501;-52
2021/08/04 01:33:55;;;;;;;4.30;1.00;;;;;;;15.32;72.77;99717.76;1714781;81;21074;-54
2021/08/04 01:36:21;;;;;;;1.07;0.95;;;;;;;15.30;72.74;99718.37;1712215;81;21110;-55
2021/08/04 01:38:47;;;;;;;1.40;0.98;;;;;;;15.27;72.66;99713.14;1696913;82;21074;-54
2021/08/04 01:41:15;;;;;;;1.07;0.90;;;;;;;15.24;72.70;99713.34;1712889;81;21034;-53
2021/08/04 01:43:43;;;;;;;13.47;1.00;;;;;;;15.21;72.81;99713.58;1710969;81;21133;-54
2021/08/04 01:46:11;;;;;;;2.98;0.70;;;;;;;15.18;72.90;99710.58;1680160;83;20950;-52
2021/08/04 01:48:40;;;;;;;2.80;0.70;;;;;;;15.13;72.89;99708.19;1651558;83;21068;-53
2021/08/04 01:51:08;;;;;;;1.47;0.70;;;;;;;15.14;73.06;99711.25;1712510;81;21042;-53
2021/08/04 01:53:35;;;;;;;1.02;0.70;;;;;;;15.13;73.12;99709.55;1712450;81;21047;-52
2021/08/04 01:56:02;;;;;;;1.85;0.70;;;;;;;15.13;73.12;99709.55;1715928;81;21128;-52
2021/08/04 01:58:28;;;;;;;6.35;0.80;;;;;;;15.11;72.89;99702.48;1676068;81;21171;-55
2021/08/04 02:00:55;;;;;;;1.45;0.70;;;;;;;15.11;72.83;99706.06;1712758;81;21124;-54
2021/08/04 02:03:21;;;;;;;2.55;0.90;;;;;;;15.10;72.67;99712.45;1712408;81;21516;-53
2021/08/04 02:05:48;;;;;;;3.62;1.00;;;;;;;15.07;72.58;99711.29;1713625;81;21085;-54
2021/08/04 02:08:39;;;;;;;1.80;0.90;;;;;;;15.03;72.45;99715.67;1712894;81;21246;-55
2021/08/04 02:11:28;;;;;;;1.47;0.78;;;;;;;14.97;72.50;99710.68;1716400;81;20919;-51
2021/08/04 02:14:06;;;;;;;1.10;1.00;;;;;;;14.92;72.37;99710.09;1726884;80;21549;-54
2021/08/04 02:17:06;;;;;;;2.75;0.70;;;;;;;14.86;72.62;99708.67;1740490;80;21618;-53
2021/08/04 02:20:05;;;;;;;1.15;0.70;;;;;;;14.82;72.79;99704.90;1738948;80;21914;-52
2021/08/04 02:22:44;;;;;;;1.07;0.80;;;;;;;14.79;72.88;99711.41;1740457;80;21109;-53
2021/08/04 02:25:14;;;;;;;1.52;0.80;;;;;;;14.76;72.91;99715.19;1743033;80;21681;-53
2021/08/04 02:27:42;;;;;;;4.78;0.82;;;;;;;14.73;73.00;99707.73;1738158;80;21089;-53
2021/08/04 02:30:09;;;;;;;3.17;0.90;;;;;;;14.73;72.98;99722.62;1739487;80;21549;-52
2021/08/04 02:32:37;;;;;;;2.15;0.90;;;;;;;14.70;72.92;99722.86;1738468;80;21319;-52
2021/08/04 02:35:05;;;;;;;2.85;0.80;;;;;;;14.67;72.93;99725.75;1689609;80;21076;-52
2021/08/04 02:37:33;;;;;;;1.15;0.60;;;;;;;14.63;72.96;99719.65;1741577;80;20946;-53
2021/08/04 02:40:00;;;;;;;2.47;0.70;;;;;;;14.62;73.08;99726.06;1739847;80;21236;-54
2021/08/04 02:42:27;;;;;;;3.80;0.78;;;;;;;14.57;72.95;99729.54;1740768;80;20985;-53
2021/08/04 02:44:55;;;;;;;0.95;0.70;;;;;;;14.58;73.24;99730.41;1741910;80;21551;-54
2021/08/04 02:47:22;;;;;;;3.90;0.68;;;;;;;14.58;73.36;99735.83;1742057;80;21016;-52
2021/08/04 02:49:49;;;;;;;1.67;0.70;;;;;;;14.58;73.36;99735.83;1741798;80;20934;-52
2021/08/04 02:52:18;;;;;;;3.17;0.70;;;;;;;14.58;73.32;99731.77;1742163;80;21577;-52
2021/08/04 02:54:46;;;;;;;2.80;0.70;;;;;;;14.58;73.37;99733.99;1742537;80;20950;-52
2021/08/04 02:57:13;;;;;;;1.40;1.00;;;;;;;14.58;73.40;99729.93;1739570;80;20919;-53
2021/08/04 02:59:40;;;;;;;3.10;0.80;;;;;;;14.57;73.47;99732.25;1739743;80;21447;-51
2021/08/04 03:02:06;;;;;;;2.98;0.90;;;;;;;14.57;73.49;99730.02;1742189;80;21372;-52
2021/08/04 03:04:33;;;;;;;2.37;0.70;;;;;;;14.57;73.56;99730.89;1741497;80;21364;-52
2021/08/04 03:06:59;;;;;;;1.00;0.60;;;;;;;14.58;73.69;99730.41;1741765;80;21418;-53
2021/08/04 03:09:25;;;;;;;1.42;0.70;;;;;;;14.60;73.86;99736.61;1740691;80;20910;-53
2021/08/04 03:11:51;;;;;;;1.85;0.68;;;;;;;14.62;74.00;99738.73;1741606;80;20919;-54
2021/08/04 03:14:18;;;;;;;2.30;1.00;;;;;;;14.63;74.18;99736.42;1741198;80;20953;-54
2021/08/04 03:16:45;;;;;;;0.82;0.78;;;;;;;14.67;74.31;99742.00;1741277;80;21091;-53
2021/08/04 03:19:13;;;;;;;2.35;0.90;;;;;;;14.71;74.53;99738.14;1740318;80;20919;-53
2021/08/04 03:21:39;;;;;;;1.05;0.80;;;;;;;14.75;74.72;99743.73;1741704;80;21363;-53
2021/08/04 03:24:06;;;;;;;1.95;0.80;;;;;;;14.82;75.13;99743.70;1740240;80;21511;-53
2021/08/04 03:26:33;;;;;;;4.62;0.68;;;;;;;14.82;75.13;99743.70;1742349;80;21024;-53
2021/08/04 03:28:59;;;;;;;3.87;0.98;;;;;;;14.86;75.24;99740.33;1740038;80;21757;-53
2021/08/04 03:31:25;;;;;;;3.55;0.70;;;;;;;14.91;75.63;99749.00;1739783;80;21117;-52
2021/08/04 03:33:52;;;;;;;0.80;0.60;;;;;;;14.97;75.67;99752.69;1736723;80;21026;-53
2021/08/04 03:36:18;;;;;;;1.90;0.70;;;;;;;15.04;75.78;99749.95;1736960;80;21111;-53
2021/08/04 03:38:44;;;;;;;4.05;0.90;;;;;;;15.10;75.94;99746.34;1738938;80;21086;-53
2021/08/04 03:41:11;;;;;;;1.92;0.90;;;;;;;15.14;76.01;99749.20;1739667;80;21129;-53
2021/08/04 03:43:37;;;;;;;3.47;0.90;;;;;;;15.19;76.12;99748.92;1737369;80;21118;-52
2021/08/04 03:46:04;;;;;;;6.85;0.90;;;;;;;15.24;76.22;99752.66;1739725;80;21479;-51
2021/08/04 03:48:30;;;;;;;2.05;0.80;;;;;;;15.27;76.32;99749.27;1741180;80;21365;-51
2021/08/04 03:50:58;;;;;;;2.58;0.70;;;;;;;15.38;76.44;99755.33;1740803;80;21985;-52
2021/08/04 03:53:24;;;;;;;0.80;0.70;;;;;;;15.46;76.60;99759.75;1740376;80;21401;-52
2021/08/04 03:55:52;;;;;;;1.00;0.90;;;;;;;15.55;76.82;99759.64;1738581;80;21598;-52
2021/08/04 03:58:18;;;;;;;1.62;0.70;;;;;;;15.64;77.10;99765.80;1738172;80;21468;-52
2021/08/04 04:00:45;;;;;;;0.80;0.60;;;;;;;15.72;77.29;99760.22;1739729;80;21053;-52
2021/08/04 04:03:12;;;;;;;1.12;0.60;;;;;;;15.82;77.47;99764.53;1739312;80;21117;-52
2021/08/04 04:05:39;;;;;;;3.22;0.95;;;;;;;15.91;77.55;99760.30;1741579;80;21122;-51
2021/08/04 04:08:07;;;;;;;0.70;0.70;;;;;;;15.99;77.58;99761.99;1740039;80;20923;-53
2021/08/04 04:10:33;;;;;;;1.90;0.90;;;;;;;16.08;77.61;99773.53;1741903;80;21139;-52
2021/08/04 04:13:00;;;;;;;0.70;0.70;;;;;;;16.16;77.84;99767.10;1738472;80;21061;-52
2021/08/04 04:15:26;;;;;;;0.88;0.60;;;;;;;16.25;77.95;99774.56;1709204;80;21115;-53
2021/08/04 04:17:52;;;;;;;1.42;0.72;;;;;;;16.35;78.04;99774.30;1698238;82;21077;-52
2021/08/04 04:20:18;;;;;;;1.32;0.70;;;;;;;16.45;78.09;99772.66;1699004;82;21085;-52
2021/08/04 04:22:45;;;;;;;1.65;0.78;;;;;;;16.56;78.33;99774.13;1700780;82;21400;-51
2021/08/04 04:25:12;;;;;;;0.82;0.70;;;;;;;16.64;78.30;99767.67;1700029;82;21027;-52
2021/08/04 04:27:40;;;;;;;1.27;0.70;;;;;;;16.75;78.17;99760.59;1673123;82;21125;-54
2021/08/04 04:30:08;;;;;;;3.72;0.80;;;;;;;16.87;78.21;99758.31;1700878;82;21103;-53
2021/08/04 04:32:34;;;;;;;1.55;0.90;;;;;;;16.96;78.00;99767.14;1699936;82;21058;-54
2021/08/04 04:35:00;;;;;;;1.65;0.90;;;;;;;17.08;76.41;99764.89;1700582;82;21106;-53
2021/08/04 04:37:27;;;;;;;3.95;1.00;;;;;;;17.22;74.68;99768.79;1702197;82;21042;-54
2021/08/04 04:39:54;;;;;;;1.15;1.00;;;;;;;17.37;73.56;99774.42;1667141;84;21565;-52
2021/08/04 04:42:21;;;;;;;1.12;1.02;;;;;;;17.54;74.50;99781.80;1639903;85;21588;-53
2021/08/04 04:44:47;;;;;;;1.27;0.80;;;;;;;17.65;75.31;99781.88;1640781;85;21050;-54
2021/08/04 04:47:14;;;;;;;0.80;0.70;;;;;;;17.74;75.75;99781.18;1669518;84;21127;-53
2021/08/04 04:49:40;;;;;;;1.00;0.80;;;;;;;17.82;75.99;99772.41;1645238;85;21067;-52
2021/08/04 04:52:08;;;;;;;1.17;1.00;;;;;;;17.90;76.11;99779.48;1670697;84;21463;-54
2021/08/04 04:54:34;;;;;;;2.15;1.00;;;;;;;17.98;75.31;99772.95;1667715;84;21532;-51
2021/08/04 04:57:01;;;;;;;1.22;1.12;;;;;;;18.07;74.09;99775.83;1667567;84;21066;-53
2021/08/04 04:59:28;;;;;;;1.10;1.00;;;;;;;18.19;72.55;99770.41;1645613;85;21055;-53
2021/08/04 05:01:54;;;;;;;2.27;0.85;;;;;;;18.32;71.21;99770.66;1669470;84;21070;-51
2021/08/04 05:04:21;;;;;;;1.80;0.90;;;;;;;18.46;69.32;99764.95;1666574;83;21693;-54
2021/08/04 05:06:47;;;;;;;1.45;1.00;;;;;;;18.58;68.44;99764.51;1670836;84;21630;-52
2021/08/04 05:09:14;;;;;;;2.05;1.00;;;;;;;18.69;68.15;99764.52;1669534;84;21046;-52
2021/08/04 05:11:40;;;;;;;4.00;0.98;;;;;;;18.78;68.01;99769.22;1671078;84;21460;-52
2021/08/04 05:14:08;;;;;;;1.87;0.90;;;;;;;18.88;68.34;99778.88;1646496;84;21114;-51
2021/08/04 05:16:35;;;;;;;1.20;1.10;;;;;;;18.98;69.00;99789.88;1661508;84;21406;-52
2021/08/04 05:19:01;;;;;;;1.70;0.85;;;;;;;19.06;70.02;99789.61;1661471;84;21120;-53
2021/08/04 05:21:28;;;;;;;1.92;0.85;;;;;;;19.12;70.92;99788.27;1659604;84;21560;-55
2021/08/04 05:23:54;;;;;;;2.80;0.70;;;;;;;19.17;71.89;99799.65;1674491;83;21150;-53
2021/08/04 05:26:23;;;;;;;0.70;0.70;;;;;;;19.19;72.30;99797.17;1675267;83;21086;-55
2021/08/04 05:28:51;;;;;;;0.90;0.78;;;;;;;19.21;72.51;99789.73;1674958;83;21556;-54
2021/08/04 05:31:18;;;;;;;1.00;0.80;;;;;;;19.23;72.09;99790.94;1673311;83;21838;-54
2021/08/04 05:33:44;;;;;;;4.75;0.90;;;;;;;19.27;71.33;99797.89;1642188;85;21373;-55
2021/08/04 05:36:11;;;;;;;1.20;0.90;;;;;;;19.32;69.52;99796.13;1662422;84;21152;-53
2021/08/04 05:38:37;;;;;;;2.70;1.00;;;;;;;19.39;68.31;99787.83;1663708;84;21453;-54
2021/08/04 05:41:04;;;;;;;3.83;0.95;;;;;;;19.47;67.49;99787.58;1713654;81;21575;-52
2021/08/04 05:43:31;;;;;;;4.40;1.00;;;;;;;19.57;66.98;99792.61;1714612;81;21135;-55
2021/08/04 05:45:58;;;;;;;4.85;0.90;;;;;;;19.68;66.65;99791.70;1707997;81;22387;-55
2021/08/04 05:48:24;;;;;;;1.00;0.90;;;;;;;19.79;66.39;99795.77;1717825;81;21397;-55
2021/08/04 05:50:51;;;;;;;2.45;0.85;;;;;;;19.88;66.07;99788.64;1714563;81;21083;-53
2021/08/04 05:53:17;;;;;;;3.25;0.85;;;;;;;19.96;64.02;99786.98;1711221;81;21052;-53
2021/08/04 05:55:44;;;;;;;1.70;0.80;;;;;;;20.06;63.46;99788.42;1711249;82;22089;-52
2021/08/04 05:58:10;;;;;;;3.30;1.37;;;;;;;20.15;63.20;99778.06;1713229;81;21057;-54
2021/08/04 06:00:36;;;;;;;1.55;1.00;;;;;;;20.27;63.37;99787.03;1712787;81;21049;-53
2021/08/04 06:03:03;;;;;;;1.35;0.88;;;;;;;20.35;62.82;99789.49;1712596;82;21067;-56
2021/08/04 06:05:30;;;;;;;2.12;1.27;;;;;;;20.44;62.69;99791.05;1722377;82;21038;-53
2021/08/04 06:07:56;;;;;;;1.95;0.90;;;;;;;20.53;63.04;99795.20;1717908;82;21938;-55
2021/08/04 06:10:24;;;;;;;4.58;0.88;;;;;;;20.64;63.62;99788.79;1717093;82;21031;-55
2021/08/04 06:12:51;;;;;;;5.30;0.80;;;;;;;20.73;61.82;99781.13;1713893;82;21030;-53
2021/08/04 06:15:18;;;;;;;1.50;0.55;;;;;;;20.86;60.83;99788.59;1724293;80;21226;-55
2021/08/04 06:17:46;;;;;;;2.60;0.80;;;;;;;21.00;60.01;99776.41;1738651;80;21049;-54
2021/08/04 06:20:14;;;;;;;1.67;0.50;;;;;;;21.13;59.10;99776.50;1735098;80;21157;-54
2021/08/04 06:25:18;;;;;;;0.50;0.50;;;;;;;21.45;57.43;99772.19;1863769;75;28044;-53
2021/08/04 06:27:44;;;;;;;1.77;0.60;;;;;;;21.55;55.71;99776.31;1842998;77;21555;-52
2021/08/04 06:30:11;;;;;;;1.00;0.70;;;;;;;21.66;55.25;99778.92;1836862;77;21153;-54
2021/08/04 06:32:37;;;;;;;1.55;0.50;;;;;;;21.76;55.30;99781.67;1828017;77;21589;-54
2021/08/04 06:35:04;;;;;;;4.10;0.50;;;;;;;21.81;54.58;99784.33;1821629;77;20984;-54
2021/08/04 06:37:31;;;;;;;2.20;0.53;;;;;;;21.85;54.38;99783.05;1777365;78;20903;-55
2021/08/04 06:39:57;;;;;;;2.65;0.72;;;;;;;21.88;55.16;99786.84;1764456;79;21033;-55
2021/08/04 06:42:23;;;;;;;0.60;0.60;;;;;;;21.96;54.96;99783.88;1761968;79;21084;-54
2021/08/04 06:44:50;;;;;;;0.53;0.40;;;;;;;22.01;55.09;99787.09;1775682;78;21093;-52
2021/08/04 06:47:16;;;;;;;0.70;0.47;;;;;;;22.09;54.74;99784.49;1770914;79;21014;-51
2021/08/04 06:49:44;;;;;;;0.53;0.50;;;;;;;22.14;53.96;99776.68;1765490;79;21515;-55
2021/08/04 06:52:10;;;;;;;0.68;0.50;;;;;;;22.20;53.87;99776.95;1762540;79;21645;-54
2021/08/04 06:54:37;;;;;;;0.62;0.40;;;;;;;22.24;53.28;99778.91;1753033;78;21034;-57
2021/08/04 06:57:03;;;;;;;0.75;0.50;;;;;;;22.31;53.86;99778.67;1771104;78;21022;-58
2021/08/04 06:59:30;;;;;;;1.47;0.40;;;;;;;22.39;52.70;99783.41;1762948;79;21109;-54
2021/08/04 07:02:01;;;;;;;2.90;0.40;;;;;;;22.47;52.44;99783.53;1767979;79;21554;-53
2021/08/04 07:04:24;;;;;;;1.57;0.37;;;;;;;22.57;52.49;99778.88;1767186;79;21072;-56
2021/08/04 07:07:00;;;;;;;1.52;0.40;;;;;;;22.65;51.59;99780.37;1767926;79;21133;-53
2021/08/04 07:09:26;;;;;;;1.45;0.40;;;;;;;22.75;50.62;99781.73;1762443;79;21061;-53
2021/08/04 07:11:53;;;;;;;2.70;0.40;;;;;;;22.87;50.42;99779.17;1762782;79;21029;-55
2021/08/04 07:14:20;;;;;;;2.27;0.40;;;;;;;22.96;48.58;99783.75;1774918;78;21117;-57
2021/08/04 07:16:48;;;;;;;2.50;0.40;;;;;;;23.04;48.21;99772.87;1778663;78;21037;-55
2021/08/04 07:19:17;;;;;;;2.35;0.40;;;;;;;23.11;48.27;99767.13;1777571;78;21834;-54
2021/08/04 07:21:44;;;;;;;0.37;0.30;;;;;;;23.19;46.75;99768.59;1779488;78;20917;-53
2021/08/04 07:24:10;;;;;;;0.82;0.30;;;;;;;23.28;45.15;99770.41;1761616;79;20914;-54
2021/08/04 07:26:39;;;;;;;2.15;0.40;;;;;;;23.36;44.48;99769.13;1760353;79;20981;-54
2021/08/04 07:29:06;;;;;;;1.17;0.30;;;;;;;23.45;44.10;99770.59;1762116;79;20941;-55
2021/08/04 07:31:33;;;;;;;0.60;0.30;;;;;;;23.54;44.32;99774.68;1760422;79;21091;-57
2021/08/04 07:34:00;;;;;;;1.02;0.30;;;;;;;23.62;43.16;99767.89;1762171;79;21074;-58
2021/08/04 07:36:28;;;;;;;0.30;0.30;;;;;;;23.70;43.57;99779.47;1758249;79;21062;-56
2021/08/04 07:38:54;;;;;;;0.30;0.30;;;;;;;23.80;43.42;99780.77;1776844;78;22234;-56
2021/08/04 07:41:21;;;;;;;0.50;0.40;;;;;;;23.90;42.24;99778.81;1756718;79;21093;-56
2021/08/04 07:43:49;;;;;;;0.62;0.50;;;;;;;23.98;41.59;99783.00;1760213;79;21166;-55
2021/08/04 07:46:21;;;;;;;1.82;0.50;;;;;;;24.06;43.05;99777.57;1757163;79;21067;-55
2021/08/04 07:48:45;;;;;;;2.87;0.40;;;;;;;24.16;42.90;99774.73;1758354;79;21160;-57
2021/08/04 07:51:12;;;;;;;1.10;0.40;;;;;;;24.21;42.53;99770.50;1754874;79;21104;-56
2021/08/04 07:53:38;;;;;;;0.50;0.37;;;;;;;24.29;43.17;99776.57;1741048;80;21067;-56
2021/08/04 07:56:04;;;;;;;4.03;0.45;;;;;;;24.36;43.40;99781.27;1772638;79;21971;-52
2021/08/04 07:58:31;;;;;;;1.90;0.68;;;;;;;24.42;42.53;99779.74;1765823;79;21451;-55
2021/08/04 08:00:57;;;;;;;3.60;0.40;;;;;;;24.48;41.46;99777.74;1763583;79;21378;-55
2021/08/04 08:03:23;;;;;;;0.50;0.50;;;;;;;24.52;41.66;99776.38;1765171;79;21685;-54
2021/08/04 08:05:50;;;;;;;0.40;0.40;;;;;;;24.54;41.45;99778.97;1766131;79;21063;-55
2021/08/04 08:08:16;;;;;;;0.65;0.40;;;;;;;24.57;42.21;99778.15;1763046;79;21121;-55
2021/08/04 08:10:46;;;;;;;3.67;0.45;;;;;;;24.61;42.73;99763.53;1750369;80;21474;-55
2021/08/04 08:13:13;;;;;;;0.80;0.50;;;;;;;24.67;42.80;99762.36;1762827;79;21077;-56
2021/08/04 08:15:41;;;;;;;0.40;0.40;;;;;;;24.73;41.88;99764.98;1751159;80;21059;-56
2021/08/04 08:18:10;;;;;;;0.42;0.30;;;;;;;24.78;42.00;99763.46;1758227;79;21093;-57
2021/08/04 08:20:38;;;;;;;0.50;0.40;;;;;;;24.82;41.98;99762.63;1761659;79;20942;-55
2021/08/04 08:23:05;;;;;;;1.95;0.50;;;;;;;24.87;41.72;99761.61;1760565;79;21091;-57
2021/08/04 08:25:31;;;;;;;1.87;0.40;;;;;;;24.91;40.90;99760.30;1725962;80;21032;-55
2021/08/04 08:27:59;;;;;;;0.85;0.30;;;;;;;24.94;40.54;99752.20;1740927;80;21746;-56
2021/08/04 08:30:26;;;;;;;1.30;0.30;;;;;;;24.96;41.06;99757.90;1724334;81;21561;-57
2021/08/04 08:32:53;;;;;;;0.60;0.40;;;;;;;25.02;41.09;99750.85;1721142;81;21657;-57
2021/08/04 08:35:19;;;;;;;0.57;0.40;;;;;;;25.07;41.68;99742.47;1725452;81;21423;-56
2021/08/04 08:37:48;;;;;;;0.60;0.33;;;;;;;25.12;40.27;99738.68;1717792;81;21767;-58
2021/08/04 08:40:14;;;;;;;1.80;0.40;;;;;;;25.18;40.16;99737.14;1727161;81;21411;-56
2021/08/04 08:42:42;;;;;;;1.70;0.35;;;;;;;25.23;40.93;99731.49;1719575;81;21425;-55
2021/08/04 08:45:09;;;;;;;0.50;0.25;;;;;;;25.31;40.83;99735.30;1722393;81;21175;-56
2021/08/04 08:47:37;;;;;;;0.70;0.40;;;;;;;25.34;39.79;99733.08;1728419;81;20961;-57
2021/08/04 08:50:05;;;;;;;0.30;0.30;;;;;;;25.39;39.68;99732.05;1695689;81;20921;-56
2021/08/04 08:52:32;;;;;;;0.53;0.37;;;;;;;25.45;39.88;99734.11;1723365;81;21699;-57
2021/08/04 08:55:02;;;;;;;1.55;0.30;;;;;;;25.50;40.51;99726.73;1720956;81;21480;-56
2021/08/04 08:57:30;;;;;;;0.30;0.30;;;;;;;25.56;40.33;99730.18;1725524;81;22161;-56
2021/08/04 08:59:57;;;;;;;2.45;0.30;;;;;;;25.61;40.12;99731.93;1701110;81;21376;-56
2021/08/04 09:02:26;;;;;;;0.60;0.37;;;;;;;25.67;39.62;99734.02;1725346;81;20984;-58
2021/08/04 09:05:05;;;;;;;1.75;0.20;;;;;;;25.73;38.51;99731.09;1724456;81;21320;-56
2021/08/04 09:07:36;;;;;;;0.78;0.30;;;;;;;25.76;38.16;99731.63;1723576;81;20930;-55
2021/08/04 09:10:31;;;;;;;0.33;0.30;;;;;;;25.78;36.86;99725.91;1724914;81;21247;-53
2021/08/04 09:13:02;;;;;;;4.03;0.33;;;;;;;25.77;36.25;99732.48;1746391;80;20941;-56
2021/08/04 09:15:41;;;;;;;0.98;0.33;;;;;;;25.77;37.36;99738.00;1732634;81;20921;-55
2021/08/04 09:18:14;;;;;;;1.55;0.78;;;;;;;25.83;37.60;99731.28;1732354;81;20889;-57
2021/08/04 09:20:53;;;;;;;0.80;0.30;;;;;;;25.91;36.90;99727.66;1745426;80;21261;-54
2021/08/04 09:23:22;;;;;;;0.30;0.25;;;;;;;25.99;35.89;99718.00;1739097;80;21072;-57
2021/08/04 09:26:11;;;;;;;2.90;0.25;;;;;;;26.02;35.25;99713.52;1752367;79;20903;-55
2021/08/04 09:29:04;;;;;;;0.30;0.20;;;;;;;26.05;35.50;99718.67;1762261;79;21539;-56
2021/08/04 09:31:43;;;;;;;0.50;0.20;;;;;;;26.04;35.65;99711.43;1761320;79;20946;-57
2021/08/04 09:34:38;;;;;;;0.78;0.30;;;;;;;26.08;35.19;99716.95;1780091;78;21064;-58
2021/08/04 09:37:14;;;;;;;0.30;0.20;;;;;;;26.10;34.66;99719.03;1758930;79;21150;-58
2021/08/04 09:39:44;;;;;;;0.30;0.30;;;;;;;26.12;35.17;99717.45;1770254;79;20949;-54
2021/08/04 09:42:12;;;;;;;1.67;0.20;;;;;;;26.14;36.96;99724.53;1770962;79;20918;-57
2021/08/04 09:44:57;;;;;;;0.53;0.20;;;;;;;26.16;35.78;99722.47;1770157;79;22355;-54
2021/08/04 09:47:24;;;;;;;0.20;0.20;;;;;;;26.18;35.19;99721.78;1768003;79;21017;-56
2021/08/04 09:50:07;;;;;;;0.40;0.30;;;;;;;26.20;33.83;99714.72;1772450;79;21888;-57
2021/08/04 09:52:33;;;;;;;0.28;0.20;;;;;;;26.18;33.76;99711.27;1755816;80;21359;-56
2021/08/04 09:55:17;;;;;;;3.35;0.30;;;;;;;26.15;34.89;99704.19;1762063;79;21574;-53
2021/08/04 09:57:45;;;;;;;0.82;0.30;;;;;;;26.14;36.61;99707.98;1759816;79;21083;-56
2021/08/04 10:00:15;;;;;;;1.77;0.30;;;;;;;26.16;37.97;99710.56;1762458;79;21514;-56
2021/08/04 10:02:44;;;;;;;2.70;0.37;;;;;;;26.15;37.66;99704.70;1760989;79;21136;-57
2021/08/04 10:05:25;;;;;;;0.57;0.30;;;;;;;26.16;36.98;99704.53;1770359;79;21038;-57
2021/08/04 10:08:07;;;;;;;1.75;0.30;;;;;;;26.19;36.15;99699.19;1763880;79;21537;-59
2021/08/04 10:10:40;;;;;;;0.30;0.20;;;;;;;26.22;36.41;99694.17;1750131;80;21029;-58
2021/08/04 10:13:11;;;;;;;0.30;0.30;;;;;;;26.26;37.47;99701.63;1748433;80;21064;-55
2021/08/04 10:15:43;;;;;;;2.92;0.30;;;;;;;26.32;37.55;99699.53;1775600;78;21852;-60
2021/08/04 10:18:22;;;;;;;0.37;0.30;;;;;;;26.37;37.72;99699.33;1763230;79;21445;-56
2021/08/04 10:20:52;;;;;;;0.45;0.30;;;;;;;26.45;37.69;99701.76;1762975;79;20919;-58
2021/08/04 10:23:19;;;;;;;0.95;0.30;;;;;;;26.47;36.25;99695.00;1773377;79;21023;-55
2021/08/04 10:25:46;;;;;;;0.42;0.40;;;;;;;26.48;36.16;99696.73;1772378;79;22403;-57
2021/08/04 10:28:12;;;;;;;0.53;0.30;;;;;;;26.48;37.67;99705.52;1769895;79;22401;-53
2021/08/04 10:30:40;;;;;;;3.80;0.30;;;;;;;26.47;36.79;99701.91;1776712;78;21140;-56
2021/08/04 10:33:06;;;;;;;0.55;0.30;;;;;;;26.45;37.31;99708.14;1751479;78;22645;-56
2021/08/04 10:35:35;;;;;;;0.50;0.30;;;;;;;26.46;37.77;99702.07;1772358;78;21308;-56
2021/08/04 10:38:01;;;;;;;0.50;0.23;;;;;;;26.45;37.57;99701.24;1770363;79;21295;-58
2021/08/04 10:40:27;;;;;;;4.37;0.30;;;;;;;26.47;37.47;99698.28;1761077;79;23285;-57
2021/08/04 10:42:54;;;;;;;0.35;0.30;;;;;;;26.49;36.84;99700.34;1763289;79;21481;-56
2021/08/04 10:45:27;;;;;;;0.30;0.30;;;;;;;26.48;37.11;99696.73;1766092;79;21275;-53
2021/08/04 10:47:56;;;;;;;0.50;0.30;;;;;;;26.47;37.75;99700.52;1765814;79;21082;-55
2021/08/04 10:50:22;;;;;;;0.50;0.30;;;;;;;26.47;37.81;99698.28;1767794;79;21332;-57
2021/08/04 10:53:02;;;;;;;1.60;0.30;;;;;;;26.44;37.74;99700.03;1762125;79;21200;-54
2021/08/04 10:55:30;;;;;;;0.72;0.30;;;;;;;26.44;37.89;99698.14;1766152;79;21330;-56
2021/08/04 10:58:07;;;;;;;0.50;0.30;;;;;;;26.45;37.78;99695.72;1741197;79;20946;-57
2021/08/04 11:00:34;;;;;;;0.40;0.30;;;;;;;26.44;37.41;99697.27;1764644;79;21070;-55
2021/08/04 11:03:43;;;;;;;0.85;0.33;;;;;;;26.45;36.90;99692.97;1769833;79;21079;-56
2021/08/04 11:06:12;;;;;;;0.70;0.40;;;;;;;26.45;36.83;99693.48;1768707;79;21214;-58
2021/08/04 11:08:40;;;;;;;0.37;0.30;;;;;;;26.41;36.75;99692.09;1763492;79;21609;-55
2021/08/04 11:11:07;;;;;;;0.40;0.30;;;;;;;26.35;37.14;99688.16;1765759;79;21061;-56
2021/08/04 11:13:45;;;;;;;3.42;0.40;;;;;;;26.32;37.50;99686.59;1766210;79;21068;-54
2021/08/04 11:16:30;;;;;;;3.98;0.35;;;;;;;26.30;38.18;99685.91;1765341;79;21014;-57
2021/08/04 11:19:10;;;;;;;1.98;0.40;;;;;;;26.28;38.58;99683.00;1766634;79;21198;-55
2021/08/04 11:21:37;;;;;;;1.12;0.30;;;;;;;26.24;38.01;99681.06;1766016;79;21073;-55
2021/08/04 11:24:06;;;;;;;1.70;0.30;;;;;;;26.21;38.75;99681.41;1765894;79;21383;-57
2021/08/04 11:26:39;;;;;;;1.77;0.40;;;;;;;26.20;39.45;99678.84;1779938;78;21500;-54
2021/08/04 11:31:19;;;;;;;0.40;0.30;;;;;;;26.21;39.19;99681.92;1793338;78;23874;-54
2021/08/04 11:33:45;;;;;;;0.50;0.40;;;;;;;26.17;38.33;99673.16;1762503;79;21498;-56
2021/08/04 11:36:21;;;;;;;2.55;0.40;;;;;;;26.18;38.29;99666.61;1764465;79;21146;-55
2021/08/04 11:41:48;;;;;;;0.30;0.30;;;;;;;26.34;39.25;99669.36;1796027;77;22602;-56
2021/08/04 11:44:24;;;;;;;2.60;0.40;;;;;;;26.36;38.87;99669.19;1779683;79;21001;-57
2021/08/04 11:47:08;;;;;;;1.75;0.30;;;;;;;26.43;38.77;99664.67;1776043;78;22995;-57
2021/08/04 11:49:37;;;;;;;0.30;0.30;;;;;;;26.49;38.51;99658.44;1776255;78;20965;-56
2021/08/04 11:52:09;;;;;;;4.50;0.40;;;;;;;26.52;37.26;99656.70;1777641;78;20989;-55